Hovedside
METAR-TAF:

METAR-TAF

Lufthavner :

Rønne, Danmark

Bornholms lufthavn

breddegrad: 55-04N, lengdegrad: 014-45E, høyde over havet: 16 m

Gjeldene værobservasjon

Denne rapporten ble laget for 30 minutter siden, klokken 13:50 UTC
Vind 11 kt fra Sør-sørvest
Temperatur 8°C
Luftfuktighet 100%
Trykk 1003 hPa
Sikt: 2400 m
mye duskregn, dis

METAR: EKRN 221350Z AUTO 20011KT 2400NDV +DZ BR OVC003/// 08/08 Q1003

Tid: 15:20 (14:20 UTC)

Varsel

Denne rapporten ble laget for 2 timer og 50 minutter siden, klokken 11:30 UTC
Varsel gyldig fra 22. klokken 12 UTC til 22. klokken 21 UTC
Vind 15 kt fra Sør-sørvest
Sikt: 6000 m
Brutte skyer i en høyde av 600 ft
Midlertidig
fra 22. klokken 12 UTC til 22. klokken 21 UTC
Sikt: 2000 m
Brutte skyer i en høyde av 300 ft
regn, duskregn

TAF: EKRN 221130Z 2212/2221 20015KT 6000 BKN006 TEMPO 2212/2221 2000 RADZ BKN003

Værobservasjoner og værvarsel for over 4000 flyplasser (METAR- og TAF-rapporter).

Tilgjengelige stasjoner er representert av de røde og gule prikkene på kartet.

Hold musepekeren over prikken for å se navnet på stasjonen.

Klikk så for å se værobservasjoner og -varsler.

For å forandre kartet kan du klikke på den grønne knappen med svart kryss for å zoome inn, på den grønne knappen med strek for å zoome ut, eller på de grønne pilene for å se tilstøtende kart.


METAR-TAF: